createdAt,value
2022-12-14T00:06:46.936Z,76.42
2022-12-14T00:16:51.229Z,76.73
2022-12-14T00:26:54.221Z,76.01
2022-12-14T00:36:58.599Z,75.93
2022-12-14T00:47:01.624Z,75.60
2022-12-14T00:57:06.017Z,76.31
2022-12-14T01:07:09.009Z,76.92
2022-12-14T01:17:13.592Z,77.01
2022-12-14T01:27:16.277Z,76.66
2022-12-14T01:37:20.620Z,76.44
2022-12-14T01:47:29.278Z,76.13
2022-12-14T01:57:41.146Z,76.26
2022-12-14T02:07:48.978Z,76.85
2022-12-14T02:17:53.884Z,76.54
2022-12-14T02:28:10.981Z,76.67
2022-12-14T02:38:32.699Z,77.00
2022-12-14T02:48:39.845Z,78.03
2022-12-14T02:58:48.912Z,77.77
2022-12-14T03:08:52.952Z,77.88
2022-12-14T03:19:02.741Z,78.19
2022-12-14T03:29:10.721Z,78.88
2022-12-14T03:39:21.209Z,79.60
2022-12-14T03:49:36.516Z,79.02
2022-12-14T03:59:50.695Z,79.16
2022-12-14T04:09:59.053Z,78.82
2022-12-14T04:20:07.961Z,78.57
2022-12-14T04:30:13.306Z,79.33
2022-12-14T04:40:22.510Z,80.22
2022-12-14T04:50:30.897Z,80.81
2022-12-14T05:00:38.500Z,80.46
2022-12-14T05:10:45.433Z,81.02
2022-12-14T05:20:50.163Z,81.02
2022-12-14T05:30:53.274Z,81.92
2022-12-14T05:40:57.796Z,82.28
2022-12-14T05:51:05.285Z,82.39
2022-12-14T06:01:17.221Z,83.54
2022-12-14T06:11:24.011Z,82.34
2022-12-14T06:21:30.377Z,82.50
2022-12-14T06:31:34.281Z,83.04
2022-12-14T06:41:38.811Z,83.46
2022-12-14T06:51:41.972Z,82.78
2022-12-14T07:01:49.817Z,83.05
2022-12-14T07:11:53.687Z,84.13
2022-12-14T07:21:58.135Z,84.00
2022-12-14T07:32:01.061Z,85.16
2022-12-14T07:42:05.538Z,85.45
2022-12-14T07:52:08.730Z,86.41
2022-12-14T08:02:13.533Z,86.60
2022-12-14T08:12:16.973Z,87.09
2022-12-14T08:22:21.609Z,87.06
2022-12-14T08:32:28.315Z,87.21
2022-12-14T08:42:35.575Z,87.78
2022-12-14T08:52:38.647Z,87.75
2022-12-14T09:02:43.702Z,88.25
2022-12-14T09:12:46.792Z,88.84
2022-12-14T09:22:53.933Z,88.69
2022-12-14T09:32:56.915Z,87.67
2022-12-14T09:43:07.071Z,86.35
2022-12-14T09:53:15.475Z,84.66
2022-12-14T10:03:35.415Z,84.57
2022-12-14T10:13:50.975Z,84.01
2022-12-14T10:24:01.702Z,83.08
2022-12-14T10:34:19.383Z,82.55
2022-12-14T10:44:31.715Z,81.86
2022-12-14T10:54:38.882Z,80.74
2022-12-14T11:04:49.462Z,80.55
2022-12-14T11:14:56.055Z,79.96
2022-12-14T11:25:00.533Z,78.48
2022-12-14T11:35:03.375Z,79.53
2022-12-14T11:45:30.410Z,79.28
2022-12-14T11:55:38.316Z,77.60
2022-12-14T12:05:44.812Z,77.30
2022-12-14T12:15:51.394Z,76.43
2022-12-14T12:25:57.953Z,76.57
2022-12-14T12:36:05.049Z,76.20
2022-12-14T12:46:14.482Z,75.62
2022-12-14T12:56:22.163Z,73.79
2022-12-14T13:06:31.845Z,75.00
2022-12-14T13:16:38.040Z,73.98
2022-12-14T13:27:18.816Z,73.02
2022-12-14T13:37:47.822Z,72.67
2022-12-14T13:47:56.020Z,72.62
2022-12-14T13:58:11.202Z,73.02
2022-12-14T14:08:41.133Z,72.25
2022-12-14T14:19:05.703Z,72.08
2022-12-14T14:29:23.460Z,72.26
2022-12-14T14:39:56.547Z,73.47
2022-12-14T14:50:05.819Z,73.65
2022-12-14T15:00:12.569Z,74.88
2022-12-14T15:10:25.438Z,76.32
2022-12-14T15:20:30.667Z,77.91
2022-12-14T15:30:36.516Z,79.38
2022-12-14T15:40:41.261Z,80.54
2022-12-14T15:50:47.062Z,81.39
2022-12-14T16:00:53.066Z,82.86
2022-12-14T16:11:03.996Z,83.56
2022-12-14T16:21:07.563Z,84.99
2022-12-14T16:31:21.016Z,85.67
2022-12-14T16:41:35.652Z,85.97
2022-12-14T16:52:06.447Z,86.56
2022-12-14T17:02:06.744Z,87.53
2022-12-14T17:12:16.157Z,88.20
2022-12-14T17:22:29.858Z,88.37
2022-12-14T17:32:34.464Z,89.08
2022-12-14T17:42:39.382Z,89.77
2022-12-14T17:52:44.173Z,89.71
2022-12-14T18:02:47.406Z,89.97
2022-12-14T18:12:51.925Z,90.28
2022-12-14T18:22:55.611Z,91.20
2022-12-14T18:33:00.648Z,90.86
2022-12-14T18:43:03.823Z,91.09
2022-12-14T18:53:08.261Z,91.93
2022-12-14T19:03:11.431Z,97.57
2022-12-14T19:13:26.315Z,98.93
2022-12-14T19:23:29.759Z,100.00
2022-12-14T19:33:34.675Z,99.78
2022-12-14T19:43:38.065Z,97.22
2022-12-14T19:53:44.423Z,95.27
2022-12-14T20:03:49.118Z,94.42
2022-12-14T20:13:58.156Z,94.64
2022-12-14T20:24:04.292Z,98.11
2022-12-14T20:34:09.105Z,100.00
2022-12-14T20:44:13.729Z,99.79
2022-12-14T20:54:22.200Z,99.12
2022-12-14T21:04:25.535Z,99.48
2022-12-14T21:14:32.372Z,98.98
2022-12-14T21:25:01.813Z,96.31
2022-12-14T21:35:01.329Z,95.64
2022-12-14T21:45:04.996Z,95.18
2022-12-14T21:55:09.772Z,95.67
2022-12-14T22:05:13.157Z,96.20
2022-12-14T22:15:17.988Z,95.85
2022-12-14T22:25:20.966Z,95.53
2022-12-14T22:35:25.320Z,95.47
2022-12-14T22:45:29.606Z,97.81
2022-12-14T22:55:37.432Z,96.78
2022-12-14T23:05:40.466Z,97.41
2022-12-14T23:16:02.576Z,99.05
2022-12-14T23:26:23.894Z,96.69
2022-12-14T23:36:45.911Z,98.26
2022-12-14T23:47:06.472Z,99.83
2022-12-14T23:57:28.095Z,100.00
